createdAt,value
2023-01-22T00:02:03.957Z,8.47
2023-01-22T00:04:51.010Z,7.40
2023-01-22T00:07:37.945Z,7.37
2023-01-22T00:10:24.856Z,7.27
2023-01-22T00:13:11.819Z,7.57
2023-01-22T00:15:59.533Z,7.73
2023-01-22T00:18:46.557Z,7.97
2023-01-22T00:21:34.203Z,7.70
2023-01-22T00:24:21.145Z,7.10
2023-01-22T00:27:08.230Z,7.83
2023-01-22T00:29:55.223Z,7.60
2023-01-22T00:32:42.106Z,7.17
2023-01-22T00:35:30.442Z,8.03
2023-01-22T00:38:17.380Z,8.23
2023-01-22T00:41:06.527Z,8.67
2023-01-22T00:43:53.475Z,8.10
2023-01-22T00:46:40.405Z,8.13
2023-01-22T00:49:27.921Z,7.37
2023-01-22T00:52:14.827Z,8.40
2023-01-22T00:55:01.740Z,7.30
2023-01-22T00:57:48.636Z,7.23
2023-01-22T01:00:35.619Z,7.87
2023-01-22T01:03:31.079Z,7.30
2023-01-22T01:06:21.175Z,7.90
2023-01-22T01:09:08.147Z,7.53
2023-01-22T01:11:56.116Z,7.70
2023-01-22T01:14:44.108Z,8.47
2023-01-22T01:17:31.069Z,8.37
2023-01-22T01:20:18.650Z,7.70
2023-01-22T01:23:05.686Z,8.20
2023-01-22T01:25:54.479Z,7.30
2023-01-22T01:28:42.570Z,8.13
2023-01-22T01:31:29.812Z,8.17
2023-01-22T01:34:17.263Z,7.53
2023-01-22T01:37:04.159Z,8.17
2023-01-22T01:39:52.478Z,8.40
2023-01-22T01:42:41.936Z,8.33
2023-01-22T01:45:33.686Z,8.40
2023-01-22T01:48:24.462Z,8.00
2023-01-22T01:51:29.653Z,8.40
2023-01-22T01:54:17.758Z,7.77
2023-01-22T01:57:11.119Z,8.10
2023-01-22T01:59:58.976Z,8.67
2023-01-22T02:02:46.124Z,9.10
2023-01-22T02:05:38.253Z,8.00
2023-01-22T02:08:27.002Z,9.30
2023-01-22T02:11:14.984Z,7.60
2023-01-22T02:14:05.749Z,7.23
2023-01-22T02:17:07.800Z,7.40
2023-01-22T02:19:54.763Z,7.70
2023-01-22T02:22:41.755Z,8.23
2023-01-22T02:25:28.650Z,6.90
2023-01-22T02:28:15.789Z,6.23
2023-01-22T02:31:03.616Z,6.30
2023-01-22T02:33:51.034Z,6.20
2023-01-22T02:36:39.691Z,5.70
2023-01-22T02:39:26.767Z,6.73
2023-01-22T02:42:13.820Z,5.87
2023-01-22T02:45:02.070Z,5.43
2023-01-22T02:47:49.683Z,7.07
2023-01-22T02:50:36.697Z,5.90
2023-01-22T02:53:23.737Z,5.50
2023-01-22T02:56:11.722Z,6.33
2023-01-22T02:59:01.273Z,5.90
2023-01-22T03:01:48.413Z,5.60
2023-01-22T03:04:36.064Z,6.00
2023-01-22T03:07:23.386Z,5.50
2023-01-22T03:10:11.822Z,6.30
2023-01-22T03:13:17.361Z,6.00
2023-01-22T03:16:23.394Z,5.40
2023-01-22T03:19:29.325Z,5.87
2023-01-22T03:22:17.604Z,6.50
2023-01-22T03:25:04.853Z,6.53
2023-01-22T03:28:18.799Z,6.40
2023-01-22T03:31:12.483Z,6.17
2023-01-22T03:33:59.506Z,6.50
2023-01-22T03:36:47.155Z,6.37
2023-01-22T03:39:34.331Z,6.60
2023-01-22T03:42:25.203Z,6.23
2023-01-22T03:45:12.183Z,6.47
2023-01-22T03:47:59.599Z,5.97
2023-01-22T03:50:51.928Z,5.47
2023-01-22T03:53:39.528Z,6.23
2023-01-22T03:56:27.013Z,5.53
2023-01-22T03:59:19.086Z,6.50
2023-01-22T04:02:06.454Z,6.33
2023-01-22T04:05:01.416Z,6.77
2023-01-22T04:07:51.497Z,7.07
2023-01-22T04:10:42.992Z,6.20
2023-01-22T04:13:32.147Z,5.80
2023-01-22T04:16:19.847Z,5.70
2023-01-22T04:19:33.072Z,6.30
2023-01-22T04:22:22.559Z,5.90
2023-01-22T04:25:10.195Z,6.37
2023-01-22T04:27:57.143Z,6.67
2023-01-22T04:30:46.328Z,6.03
2023-01-22T04:33:49.790Z,5.80
2023-01-22T04:36:43.956Z,5.60
2023-01-22T04:39:31.405Z,5.20
2023-01-22T04:42:18.433Z,5.50
2023-01-22T04:45:05.830Z,5.90
2023-01-22T04:47:53.624Z,5.40
2023-01-22T04:50:43.030Z,5.17
2023-01-22T04:53:32.587Z,5.70
2023-01-22T04:56:20.336Z,5.40
2023-01-22T04:59:07.328Z,5.37
2023-01-22T05:01:54.847Z,5.30
2023-01-22T05:04:42.464Z,4.63
2023-01-22T05:07:29.536Z,4.83
2023-01-22T05:10:17.145Z,5.37
2023-01-22T05:13:06.071Z,5.33
2023-01-22T05:15:53.506Z,5.17
2023-01-22T05:18:40.680Z,5.40
2023-01-22T05:21:27.682Z,5.03
2023-01-22T05:24:14.773Z,5.13
2023-01-22T05:27:02.760Z,5.00
2023-01-22T05:29:55.233Z,5.10
2023-01-22T05:32:57.554Z,5.07
2023-01-22T05:35:45.620Z,4.93
2023-01-22T05:38:34.195Z,5.10
2023-01-22T05:41:21.165Z,5.40
2023-01-22T05:44:13.759Z,5.03
2023-01-22T05:47:02.070Z,4.70
2023-01-22T05:50:09.994Z,5.07
2023-01-22T05:52:57.228Z,5.17
2023-01-22T05:55:44.636Z,5.30
2023-01-22T05:58:32.677Z,5.13
2023-01-22T06:01:19.719Z,5.57
2023-01-22T06:04:10.496Z,5.07
2023-01-22T06:06:58.369Z,5.07
2023-01-22T06:09:45.980Z,4.53
2023-01-22T06:12:33.226Z,5.37
2023-01-22T06:15:20.162Z,4.90
2023-01-22T06:18:14.702Z,5.93
2023-01-22T06:21:04.371Z,5.43
2023-01-22T06:23:51.835Z,5.10
2023-01-22T06:26:39.060Z,5.37
2023-01-22T06:29:28.523Z,5.30
2023-01-22T06:32:15.915Z,5.63
2023-01-22T06:35:03.137Z,4.87
2023-01-22T06:37:50.267Z,5.17
2023-01-22T06:40:37.366Z,5.53
2023-01-22T06:43:27.190Z,4.90
2023-01-22T06:46:14.359Z,5.70
2023-01-22T06:49:16.131Z,5.77
2023-01-22T06:52:06.079Z,6.17
2023-01-22T06:54:53.255Z,5.50
2023-01-22T06:57:41.189Z,5.73
2023-01-22T07:00:28.201Z,6.23
2023-01-22T07:03:15.153Z,5.80
2023-01-22T07:06:04.441Z,6.17
2023-01-22T07:08:52.054Z,5.30
2023-01-22T07:11:38.984Z,7.70
2023-01-22T07:14:36.394Z,6.73
2023-01-22T07:17:24.139Z,6.57
2023-01-22T07:20:11.641Z,6.17
2023-01-22T07:23:00.265Z,5.47
2023-01-22T07:25:47.354Z,6.83
2023-01-22T07:28:34.299Z,5.90
2023-01-22T07:31:21.321Z,5.53
2023-01-22T07:34:08.278Z,5.53
2023-01-22T07:36:55.350Z,6.33
2023-01-22T07:39:42.247Z,6.50
2023-01-22T07:42:29.204Z,6.57
2023-01-22T07:45:19.138Z,6.80
2023-01-22T07:48:07.814Z,5.63
2023-01-22T07:50:54.799Z,7.00
2023-01-22T07:53:42.727Z,7.23
2023-01-22T07:56:29.720Z,5.87
2023-01-22T07:59:16.696Z,5.20
2023-01-22T08:02:03.897Z,5.03
2023-01-22T08:04:50.842Z,5.43
2023-01-22T08:07:37.791Z,6.07
2023-01-22T08:10:24.777Z,5.93
2023-01-22T08:13:11.693Z,6.80
2023-01-22T08:15:58.640Z,6.37
2023-01-22T08:18:45.615Z,6.53
2023-01-22T08:21:33.088Z,6.23
2023-01-22T08:24:20.026Z,6.90
2023-01-22T08:27:07.031Z,6.93
2023-01-22T08:29:55.235Z,6.53
2023-01-22T08:32:44.906Z,6.40
2023-01-22T08:35:32.050Z,7.13
2023-01-22T08:38:19.026Z,7.67
2023-01-22T08:41:05.939Z,6.97
2023-01-22T08:43:55.690Z,6.63
2023-01-22T08:46:42.655Z,6.30
2023-01-22T08:49:30.866Z,6.67
2023-01-22T08:52:17.823Z,7.20
2023-01-22T08:55:06.797Z,6.57
2023-01-22T08:57:54.752Z,7.47
2023-01-22T09:00:41.718Z,7.17
2023-01-22T09:03:29.371Z,6.97
2023-01-22T09:06:16.447Z,7.10
2023-01-22T09:09:03.777Z,7.57
2023-01-22T09:11:50.727Z,7.40
2023-01-22T09:14:37.618Z,7.53
2023-01-22T09:17:24.601Z,8.17
2023-01-22T09:20:11.679Z,8.50
2023-01-22T09:22:58.680Z,7.80
2023-01-22T09:25:45.575Z,7.40
2023-01-22T09:28:35.759Z,7.50
2023-01-22T09:31:23.007Z,7.87
2023-01-22T09:34:09.964Z,7.30
2023-01-22T09:36:56.919Z,7.00
2023-01-22T09:39:43.879Z,7.67
2023-01-22T09:42:34.970Z,7.07
2023-01-22T09:45:25.302Z,6.90
2023-01-22T09:48:16.713Z,7.13
2023-01-22T09:51:05.102Z,7.80
2023-01-22T09:53:58.133Z,7.60
2023-01-22T09:56:49.978Z,7.20
2023-01-22T09:59:51.509Z,7.50
2023-01-22T10:02:44.302Z,7.53
2023-01-22T10:05:39.585Z,6.70
2023-01-22T10:08:33.395Z,8.13
2023-01-22T10:11:20.647Z,7.57
2023-01-22T10:14:12.422Z,6.90
2023-01-22T10:17:01.561Z,7.60
2023-01-22T10:19:55.549Z,7.47
2023-01-22T10:22:42.475Z,7.40
2023-01-22T10:25:29.537Z,7.40
2023-01-22T10:28:25.255Z,8.13
2023-01-22T10:31:36.804Z,8.40
2023-01-22T10:34:30.297Z,7.53
2023-01-22T10:37:18.568Z,7.70
2023-01-22T10:40:06.078Z,7.57
2023-01-22T10:43:14.319Z,8.40
2023-01-22T10:46:05.700Z,7.20
2023-01-22T10:49:00.267Z,7.57
2023-01-22T10:52:05.536Z,7.40
2023-01-22T10:54:58.252Z,7.03
2023-01-22T10:57:51.565Z,7.43
2023-01-22T11:00:51.202Z,7.13
2023-01-22T11:03:39.602Z,7.97
2023-01-22T11:06:38.962Z,7.10
2023-01-22T11:09:49.053Z,6.77
2023-01-22T11:12:41.018Z,7.43
2023-01-22T11:15:40.798Z,6.70
2023-01-22T11:18:40.349Z,6.83
2023-01-22T11:21:32.259Z,6.90
2023-01-22T11:24:34.108Z,6.97
2023-01-22T11:27:30.411Z,5.90
2023-01-22T11:30:44.640Z,5.57
2023-01-22T11:33:34.300Z,5.40
2023-01-22T11:36:45.810Z,5.33
2023-01-22T11:39:45.612Z,6.10
2023-01-22T11:43:14.626Z,5.77
2023-01-22T11:46:20.638Z,8.13
2023-01-22T11:49:22.312Z,7.97
2023-01-22T11:52:34.432Z,6.40
2023-01-22T11:55:21.499Z,5.80
2023-01-22T11:58:20.413Z,6.07
2023-01-22T12:01:21.474Z,6.00
2023-01-22T12:04:42.219Z,9.17
2023-01-22T12:07:41.346Z,10.43
2023-01-22T12:10:40.618Z,7.70
2023-01-22T12:13:46.318Z,6.83
2023-01-22T12:16:56.224Z,6.40
2023-01-22T12:20:13.301Z,6.70
2023-01-22T12:23:28.931Z,6.27
2023-01-22T12:26:43.008Z,6.17
2023-01-22T12:29:36.560Z,6.03
2023-01-22T12:32:27.681Z,6.07
2023-01-22T12:35:23.129Z,5.30
2023-01-22T12:38:29.669Z,4.97
2023-01-22T12:41:36.816Z,6.00
2023-01-22T12:44:45.915Z,5.83
2023-01-22T12:47:50.194Z,6.03
2023-01-22T12:50:49.899Z,6.43
2023-01-22T12:53:39.028Z,6.40
2023-01-22T12:56:31.894Z,6.20
2023-01-22T12:59:32.999Z,6.93
2023-01-22T13:02:39.161Z,4.93
2023-01-22T13:05:25.981Z,4.50
2023-01-22T13:08:19.070Z,4.40
2023-01-22T13:11:10.246Z,5.27
2023-01-22T13:14:20.278Z,4.80
2023-01-22T13:17:20.590Z,5.07
2023-01-22T13:20:17.133Z,5.60
2023-01-22T13:23:06.989Z,4.90
2023-01-22T13:25:56.132Z,5.00
2023-01-22T13:28:49.644Z,4.67
2023-01-22T13:31:37.127Z,4.37
2023-01-22T13:34:24.846Z,5.13
2023-01-22T13:37:27.631Z,5.37
2023-01-22T13:40:23.049Z,5.10
2023-01-22T13:43:17.175Z,5.50
2023-01-22T13:46:05.676Z,5.93
2023-01-22T13:49:05.589Z,5.93
2023-01-22T13:51:53.095Z,6.30
2023-01-22T13:54:43.756Z,5.57
2023-01-22T13:57:30.759Z,6.03
2023-01-22T14:00:22.515Z,6.13
2023-01-22T14:03:23.262Z,6.03
2023-01-22T14:06:13.067Z,6.80
2023-01-22T14:09:00.055Z,6.53
2023-01-22T14:11:48.199Z,5.87
2023-01-22T14:14:40.731Z,5.53
2023-01-22T14:17:34.143Z,5.17
2023-01-22T14:20:21.475Z,5.60
2023-01-22T14:23:08.577Z,5.57
2023-01-22T14:25:56.276Z,4.83
2023-01-22T14:28:43.253Z,5.40
2023-01-22T14:31:30.209Z,5.93
2023-01-22T14:34:17.150Z,6.37
2023-01-22T14:37:04.088Z,6.23
2023-01-22T14:39:51.016Z,5.67
2023-01-22T14:42:38.041Z,5.50
2023-01-22T14:45:25.051Z,9.20
2023-01-22T14:48:13.843Z,9.93
2023-01-22T14:51:00.852Z,9.03
2023-01-22T14:53:47.856Z,18.73
2023-01-22T14:56:34.908Z,15.10
2023-01-22T14:59:21.895Z,34.97
2023-01-22T15:02:11.910Z,49.53
2023-01-22T15:04:58.847Z,27.60
2023-01-22T15:07:45.766Z,26.93
2023-01-22T15:10:32.980Z,16.53
2023-01-22T15:13:19.926Z,13.47
2023-01-22T15:16:09.085Z,8.20
2023-01-22T15:18:57.286Z,6.60
2023-01-22T15:21:44.282Z,6.23
2023-01-22T15:24:31.220Z,5.90
2023-01-22T15:27:18.788Z,6.37
2023-01-22T15:30:06.897Z,5.53
2023-01-22T15:32:53.968Z,5.27
2023-01-22T15:35:40.906Z,6.03
2023-01-22T15:38:27.982Z,6.13
2023-01-22T15:41:18.126Z,5.80
2023-01-22T15:44:06.034Z,6.20
2023-01-22T15:46:53.018Z,5.10
2023-01-22T15:49:39.928Z,5.73
2023-01-22T15:52:26.887Z,5.00
2023-01-22T15:55:13.866Z,5.30
2023-01-22T15:58:00.930Z,5.30
2023-01-22T16:00:47.829Z,5.50
2023-01-22T16:03:34.839Z,4.73
2023-01-22T16:06:27.182Z,4.67
2023-01-22T16:09:14.159Z,5.03
2023-01-22T16:12:01.070Z,5.10
2023-01-22T16:14:48.000Z,4.93
2023-01-22T16:17:34.956Z,4.40
2023-01-22T16:20:22.252Z,5.20
2023-01-22T16:23:09.317Z,5.10
2023-01-22T16:25:56.247Z,4.97
2023-01-22T16:28:44.901Z,5.67
2023-01-22T16:31:34.642Z,5.73
2023-01-22T16:34:21.697Z,5.37
2023-01-22T16:37:08.605Z,5.50
2023-01-22T16:39:55.506Z,5.43
2023-01-22T16:42:58.381Z,5.33
2023-01-22T16:45:45.321Z,5.50
2023-01-22T16:48:32.274Z,5.30
2023-01-22T16:51:22.869Z,5.70
2023-01-22T16:54:21.671Z,6.13
2023-01-22T16:57:09.747Z,5.50
2023-01-22T16:59:56.648Z,6.20
2023-01-22T17:02:43.815Z,5.60
2023-01-22T17:05:30.912Z,6.07
2023-01-22T17:08:17.843Z,5.90
2023-01-22T17:11:06.183Z,5.83
2023-01-22T17:13:54.095Z,6.50
2023-01-22T17:16:41.042Z,5.83
2023-01-22T17:19:28.237Z,6.10
2023-01-22T17:22:15.165Z,6.40
2023-01-22T17:25:02.271Z,5.30
2023-01-22T17:27:49.279Z,5.80
2023-01-22T17:30:38.638Z,6.50
2023-01-22T17:33:25.659Z,7.00
2023-01-22T17:36:14.843Z,6.10
2023-01-22T17:39:01.811Z,6.30
2023-01-22T17:41:48.782Z,6.70
2023-01-22T17:44:35.730Z,6.17
2023-01-22T17:47:23.324Z,5.97
2023-01-22T17:50:12.093Z,6.77
2023-01-22T17:52:59.219Z,5.97
2023-01-22T17:55:46.197Z,5.70
2023-01-22T17:58:33.340Z,6.10
2023-01-22T18:01:23.660Z,6.47
2023-01-22T18:04:12.680Z,6.93
2023-01-22T18:06:59.912Z,7.03
2023-01-22T18:09:47.151Z,7.03
2023-01-22T18:12:34.091Z,7.30
2023-01-22T18:15:21.493Z,7.10
2023-01-22T18:18:08.832Z,7.30
2023-01-22T18:20:55.797Z,9.27
2023-01-22T18:23:43.762Z,9.33
2023-01-22T18:26:30.844Z,7.73
2023-01-22T18:29:17.785Z,7.43
2023-01-22T18:32:05.323Z,9.03
2023-01-22T18:34:52.562Z,7.50
2023-01-22T18:37:40.259Z,7.23
2023-01-22T18:40:30.518Z,7.77
2023-01-22T18:43:17.432Z,6.47
2023-01-22T18:46:09.614Z,7.97
2023-01-22T18:49:03.255Z,8.10
2023-01-22T18:51:50.173Z,7.07
2023-01-22T18:54:37.106Z,6.50
2023-01-22T18:57:24.002Z,6.33
2023-01-22T19:00:13.011Z,6.90
2023-01-22T19:03:00.188Z,6.30
2023-01-22T19:05:47.276Z,6.47
2023-01-22T19:08:34.821Z,6.07
2023-01-22T19:11:23.298Z,6.77
2023-01-22T19:14:13.835Z,6.23
2023-01-22T19:17:00.743Z,6.50
2023-01-22T19:19:47.806Z,6.57
2023-01-22T19:22:35.268Z,6.57
2023-01-22T19:25:22.190Z,6.40
2023-01-22T19:28:09.134Z,6.33
2023-01-22T19:30:56.232Z,6.90
2023-01-22T19:33:43.291Z,6.67
2023-01-22T19:36:32.718Z,7.07
2023-01-22T19:39:20.592Z,6.77
2023-01-22T19:42:07.538Z,6.63
2023-01-22T19:44:54.633Z,6.20
2023-01-22T19:47:41.708Z,6.80
2023-01-22T19:50:28.607Z,8.10
2023-01-22T19:53:15.586Z,5.67
2023-01-22T19:56:04.014Z,6.07
2023-01-22T19:58:54.007Z,5.30
2023-01-22T20:01:41.881Z,5.87
2023-01-22T20:04:33.406Z,6.47
2023-01-22T20:07:21.488Z,6.53
2023-01-22T20:10:09.024Z,7.33
2023-01-22T20:12:55.936Z,7.70
2023-01-22T20:15:42.887Z,7.97
2023-01-22T20:18:30.736Z,9.20
2023-01-22T20:21:19.054Z,10.60
2023-01-22T20:24:07.080Z,10.30
2023-01-22T20:26:55.347Z,9.23
2023-01-22T20:29:42.421Z,8.23
2023-01-22T20:32:30.272Z,8.17
2023-01-22T20:35:18.720Z,8.90
2023-01-22T20:38:05.838Z,9.20
2023-01-22T20:40:53.178Z,8.83
2023-01-22T20:43:42.316Z,8.23
2023-01-22T20:46:29.259Z,7.13
2023-01-22T20:49:16.243Z,7.50
2023-01-22T20:52:03.872Z,7.13
2023-01-22T20:55:01.337Z,6.63
2023-01-22T20:57:48.949Z,7.47
2023-01-22T21:00:35.909Z,7.27
2023-01-22T21:03:24.138Z,7.60
2023-01-22T21:06:14.396Z,7.83
2023-01-22T21:09:01.914Z,8.63
2023-01-22T21:11:49.174Z,8.47
2023-01-22T21:14:36.531Z,8.73
2023-01-22T21:17:23.471Z,9.43
2023-01-22T21:20:11.722Z,9.50
2023-01-22T21:22:58.699Z,8.33
2023-01-22T21:25:45.603Z,7.80
2023-01-22T21:28:32.922Z,7.60
2023-01-22T21:31:21.251Z,8.50
2023-01-22T21:34:10.470Z,7.90
2023-01-22T21:36:59.469Z,7.93
2023-01-22T21:39:46.646Z,7.70
2023-01-22T21:42:52.291Z,7.27
2023-01-22T21:46:01.417Z,7.93
2023-01-22T21:48:49.278Z,8.73
2023-01-22T21:51:36.196Z,8.27
2023-01-22T21:54:26.120Z,8.17
2023-01-22T21:57:16.625Z,8.00
2023-01-22T22:00:03.972Z,7.97
2023-01-22T22:02:52.671Z,8.00
2023-01-22T22:05:40.117Z,8.90
2023-01-22T22:08:28.833Z,8.30
2023-01-22T22:11:15.730Z,8.30
2023-01-22T22:14:02.750Z,7.60
2023-01-22T22:16:50.084Z,8.83
2023-01-22T22:19:37.163Z,7.40
2023-01-22T22:22:24.111Z,8.27
2023-01-22T22:25:11.061Z,8.80
2023-01-22T22:27:59.649Z,8.80
2023-01-22T22:30:46.633Z,9.07
2023-01-22T22:33:34.131Z,7.70
2023-01-22T22:36:23.658Z,8.67
2023-01-22T22:39:10.582Z,8.23
2023-01-22T22:41:57.539Z,8.70
2023-01-22T22:44:44.451Z,7.93
2023-01-22T22:47:31.541Z,9.07
2023-01-22T22:50:18.999Z,8.80
2023-01-22T22:53:06.154Z,8.60
2023-01-22T22:55:53.165Z,9.20
2023-01-22T22:58:40.144Z,9.40
2023-01-22T23:01:28.466Z,8.03
2023-01-22T23:04:15.503Z,8.23
2023-01-22T23:07:02.524Z,8.17
2023-01-22T23:09:49.452Z,9.23
2023-01-22T23:12:36.368Z,9.73
2023-01-22T23:15:25.014Z,8.77
2023-01-22T23:18:11.989Z,9.77
2023-01-22T23:21:07.278Z,7.90
2023-01-22T23:23:55.086Z,8.00
2023-01-22T23:26:43.707Z,8.27
2023-01-22T23:29:30.627Z,8.83
2023-01-22T23:32:19.686Z,8.80
2023-01-22T23:35:07.056Z,9.17
2023-01-22T23:37:53.971Z,8.83
2023-01-22T23:40:40.863Z,9.10
2023-01-22T23:43:28.207Z,9.43
2023-01-22T23:46:21.318Z,9.77
2023-01-22T23:49:09.602Z,8.67
2023-01-22T23:51:56.523Z,8.90
2023-01-22T23:54:43.460Z,9.23
2023-01-22T23:57:30.412Z,8.97
